sensor_id;sensor_type;location;lat;lon;timestamp;pressure;altitude;pressure_sealevel;temperature;humidity
11912;BME280;6016;41.928;25.556;2023-05-11T00:02:16;99570.44;;;12.66;66.35
11912;BME280;6016;41.928;25.556;2023-05-11T00:04:43;99573.88;;;12.66;66.02
11912;BME280;6016;41.928;25.556;2023-05-11T00:07:11;99570.00;;;12.61;66.89
11912;BME280;6016;41.928;25.556;2023-05-11T00:09:38;99385.50;;;11.46;66.05
11912;BME280;6016;41.928;25.556;2023-05-11T00:12:06;99577.50;;;12.65;66.59
11912;BME280;6016;41.928;25.556;2023-05-11T00:14:33;99569.28;;;12.69;66.65
11912;BME280;6016;41.928;25.556;2023-05-11T00:17:00;99573.88;;;12.66;66.91
11912;BME280;6016;41.928;25.556;2023-05-11T00:19:26;99554.53;;;12.56;66.61
11912;BME280;6016;41.928;25.556;2023-05-11T00:21:55;99348.66;;;11.25;67.10
11912;BME280;6016;41.928;25.556;2023-05-11T00:24:24;99553.88;;;12.34;66.52
11912;BME280;6016;41.928;25.556;2023-05-11T00:26:51;99583.25;;;12.51;66.44
11912;BME280;6016;41.928;25.556;2023-05-11T00:29:18;99558.47;;;12.22;67.04
11912;BME280;6016;41.928;25.556;2023-05-11T00:31:44;99558.63;;;12.21;67.20
11912;BME280;6016;41.928;25.556;2023-05-11T00:34:12;99572.41;;;12.34;66.93
11912;BME280;6016;41.928;25.556;2023-05-11T00:36:39;99516.16;;;12.03;68.08
11912;BME280;6016;41.928;25.556;2023-05-11T00:39:07;99582.94;;;12.54;67.00
11912;BME280;6016;41.928;25.556;2023-05-11T00:41:35;99585.31;;;12.57;66.25
11912;BME280;6016;41.928;25.556;2023-05-11T00:44:02;99583.22;;;12.61;66.29
11912;BME280;6016;41.928;25.556;2023-05-11T00:46:29;99586.72;;;12.61;65.63
11912;BME280;6016;41.928;25.556;2023-05-11T00:48:56;99585.75;;;12.62;65.66
11912;BME280;6016;41.928;25.556;2023-05-11T00:51:23;99565.00;;;12.48;66.06
11912;BME280;6016;41.928;25.556;2023-05-11T00:53:50;99589.09;;;12.64;66.56
11912;BME280;6016;41.928;25.556;2023-05-11T00:56:17;99586.84;;;12.60;65.29
11912;BME280;6016;41.928;25.556;2023-05-11T00:58:47;99600.09;;;12.60;65.86
11912;BME280;6016;41.928;25.556;2023-05-11T01:01:14;99599.41;;;12.58;65.29
11912;BME280;6016;41.928;25.556;2023-05-11T01:03:43;99601.63;;;12.52;64.35
11912;BME280;6016;41.928;25.556;2023-05-11T01:06:15;99594.13;;;12.48;64.91
11912;BME280;6016;41.928;25.556;2023-05-11T01:08:47;99589.25;;;12.43;64.74
11912;BME280;6016;41.928;25.556;2023-05-11T01:11:21;99439.13;;;11.37;65.03
11912;BME280;6016;41.928;25.556;2023-05-11T01:13:56;99583.38;;;12.30;66.16
11912;BME280;6016;41.928;25.556;2023-05-11T01:16:27;99588.41;;;12.33;65.08
11912;BME280;6016;41.928;25.556;2023-05-11T01:19:01;99572.50;;;12.13;63.75
11912;BME280;6016;41.928;25.556;2023-05-11T01:21:31;99567.09;;;12.05;64.70
11912;BME280;6016;41.928;25.556;2023-05-11T01:24:16;99592.28;;;12.19;64.99
11912;BME280;6016;41.928;25.556;2023-05-11T01:27:16;99583.66;;;12.07;66.12
11912;BME280;6016;41.928;25.556;2023-05-11T01:33:03;99452.47;;;11.25;66.75
11912;BME280;6016;41.928;25.556;2023-05-11T01:35:33;99588.81;;;12.08;66.24
11912;BME280;6016;41.928;25.556;2023-05-11T01:38:03;99588.53;;;12.12;69.15
11912;BME280;6016;41.928;25.556;2023-05-11T01:40:32;99577.63;;;11.95;66.92
11912;BME280;6016;41.928;25.556;2023-05-11T01:43:03;99572.50;;;11.62;67.40
11912;BME280;6016;41.928;25.556;2023-05-11T01:45:39;99594.91;;;12.09;66.39
11912;BME280;6016;41.928;25.556;2023-05-11T01:48:10;99593.13;;;12.09;64.56
11912;BME280;6016;41.928;25.556;2023-05-11T01:50:39;99591.28;;;12.10;64.72
11912;BME280;6016;41.928;25.556;2023-05-11T01:53:08;99558.97;;;11.87;64.88
11912;BME280;6016;41.928;25.556;2023-05-11T01:55:36;99566.19;;;11.85;65.59
11912;BME280;6016;41.928;25.556;2023-05-11T01:58:05;98941.59;;;7.80;65.46
11912;BME280;6016;41.928;25.556;2023-05-11T02:00:33;99576.50;;;11.98;65.35
11912;BME280;6016;41.928;25.556;2023-05-11T02:03:02;99579.84;;;12.00;64.13
11912;BME280;6016;41.928;25.556;2023-05-11T02:05:32;99519.81;;;11.61;65.48
11912;BME280;6016;41.928;25.556;2023-05-11T02:08:01;99582.06;;;11.94;64.08
11912;BME280;6016;41.928;25.556;2023-05-11T02:10:29;99586.22;;;11.87;65.81
11912;BME280;6016;41.928;25.556;2023-05-11T02:12:58;99527.44;;;11.44;65.66
11912;BME280;6016;41.928;25.556;2023-05-11T02:15:27;99585.50;;;11.85;66.84
11912;BME280;6016;41.928;25.556;2023-05-11T02:17:55;99589.00;;;11.86;65.86
11912;BME280;6016;41.928;25.556;2023-05-11T02:20:23;99582.88;;;11.85;65.64
11912;BME280;6016;41.928;25.556;2023-05-11T02:22:52;99536.94;;;11.57;65.70
11912;BME280;6016;41.928;25.556;2023-05-11T02:25:20;99582.47;;;11.90;66.52
11912;BME280;6016;41.928;25.556;2023-05-11T02:27:48;99584.28;;;11.89;66.90
11912;BME280;6016;41.928;25.556;2023-05-11T02:30:15;99582.88;;;11.85;66.48
11912;BME280;6016;41.928;25.556;2023-05-11T02:32:47;99578.56;;;11.94;67.16
11912;BME280;6016;41.928;25.556;2023-05-11T02:35:17;99458.13;;;11.11;66.69
11912;BME280;6016;41.928;25.556;2023-05-11T02:37:47;99581.78;;;11.88;66.94
11912;BME280;6016;41.928;25.556;2023-05-11T02:40:19;99559.66;;;11.79;67.21
11912;BME280;6016;41.928;25.556;2023-05-11T02:42:54;99576.75;;;11.85;65.92
11912;BME280;6016;41.928;25.556;2023-05-11T02:45:23;99489.53;;;11.24;67.05
11912;BME280;6016;41.928;25.556;2023-05-11T02:47:55;99572.31;;;11.85;66.37
11912;BME280;6016;41.928;25.556;2023-05-11T02:50:24;99557.53;;;11.73;66.73
11912;BME280;6016;41.928;25.556;2023-05-11T02:52:57;99581.78;;;11.88;67.92
11912;BME280;6016;41.928;25.556;2023-05-11T02:55:27;99578.56;;;11.84;68.14
11912;BME280;6016;41.928;25.556;2023-05-11T02:57:55;99539.53;;;11.47;67.16
11912;BME280;6016;41.928;25.556;2023-05-11T03:00:22;99590.09;;;11.83;68.88
11912;BME280;6016;41.928;25.556;2023-05-11T03:02:49;99579.97;;;11.88;68.50
11912;BME280;6016;41.928;25.556;2023-05-11T03:05:16;99589.16;;;11.94;68.36
11912;BME280;6016;41.928;25.556;2023-05-11T03:07:43;99547.50;;;11.66;68.33
11912;BME280;6016;41.928;25.556;2023-05-11T03:10:10;99515.63;;;11.48;69.51
11912;BME280;6016;41.928;25.556;2023-05-11T03:12:39;99587.25;;;12.06;70.46
11912;BME280;6016;41.928;25.556;2023-05-11T03:15:07;99586.44;;;12.15;69.32
11912;BME280;6016;41.928;25.556;2023-05-11T03:17:36;99588.53;;;12.21;70.71
11912;BME280;6016;41.928;25.556;2023-05-11T03:20:06;99565.53;;;12.12;69.54
11912;BME280;6016;41.928;25.556;2023-05-11T03:22:36;99571.13;;;12.19;69.54
11912;BME280;6016;41.928;25.556;2023-05-11T03:25:04;99509.03;;;11.84;68.41
11912;BME280;6016;41.928;25.556;2023-05-11T03:27:33;99601.50;;;12.44;69.08
11912;BME280;6016;41.928;25.556;2023-05-11T03:30:04;99601.19;;;12.47;68.29
11912;BME280;6016;41.928;25.556;2023-05-11T03:32:33;99598.72;;;12.46;68.65
11912;BME280;6016;41.928;25.556;2023-05-11T03:35:00;99584.78;;;12.34;68.08
11912;BME280;6016;41.928;25.556;2023-05-11T03:37:29;99474.56;;;11.34;68.61
11912;BME280;6016;41.928;25.556;2023-05-11T03:39:57;99602.31;;;12.45;67.67
11912;BME280;6016;41.928;25.556;2023-05-11T03:42:25;99560.41;;;12.20;68.32
11912;BME280;6016;41.928;25.556;2023-05-11T03:44:54;99604.13;;;12.44;68.79
11912;BME280;6016;41.928;25.556;2023-05-11T03:47:26;99613.44;;;12.48;70.43
11912;BME280;6016;41.928;25.556;2023-05-11T03:49:54;99614.16;;;12.50;69.51
11912;BME280;6016;41.928;25.556;2023-05-11T03:52:22;99538.28;;;12.12;69.72
11912;BME280;6016;41.928;25.556;2023-05-11T03:54:49;99600.50;;;12.55;69.55
11912;BME280;6016;41.928;25.556;2023-05-11T03:57:16;99610.09;;;12.56;68.83
11912;BME280;6016;41.928;25.556;2023-05-11T03:59:42;99608.19;;;12.58;68.50
11912;BME280;6016;41.928;25.556;2023-05-11T04:02:09;99607.63;;;12.55;68.60
11912;BME280;6016;41.928;25.556;2023-05-11T04:04:37;99608.44;;;12.26;70.98
11912;BME280;6016;41.928;25.556;2023-05-11T04:07:04;99482.78;;;11.41;69.91
11912;BME280;6016;41.928;25.556;2023-05-11T04:09:31;99611.91;;;12.26;70.89
11912;BME280;6016;41.928;25.556;2023-05-11T04:11:58;99618.34;;;12.33;71.09
11912;BME280;6016;41.928;25.556;2023-05-11T04:14:25;99610.25;;;12.35;70.54
11912;BME280;6016;41.928;25.556;2023-05-11T04:16:52;99620.13;;;12.33;69.99
11912;BME280;6016;41.928;25.556;2023-05-11T04:19:18;99621.53;;;12.37;69.61
11912;BME280;6016;41.928;25.556;2023-05-11T04:21:47;99624.72;;;12.41;69.25
11912;BME280;6016;41.928;25.556;2023-05-11T04:24:13;99627.94;;;12.44;69.77
11912;BME280;6016;41.928;25.556;2023-05-11T04:26:40;99619.03;;;12.45;69.98
11912;BME280;6016;41.928;25.556;2023-05-11T04:29:07;99614.28;;;12.19;69.95
11912;BME280;6016;41.928;25.556;2023-05-11T04:31:34;99622.38;;;12.47;69.26
11912;BME280;6016;41.928;25.556;2023-05-11T04:34:01;99574.91;;;12.16;69.66
11912;BME280;6016;41.928;25.556;2023-05-11T04:36:28;99593.28;;;12.28;70.80
11912;BME280;6016;41.928;25.556;2023-05-11T04:38:56;99632.50;;;12.22;70.42
11912;BME280;6016;41.928;25.556;2023-05-11T04:41:22;99626.69;;;12.38;71.09
11912;BME280;6016;41.928;25.556;2023-05-11T04:43:50;99494.78;;;11.55;70.74
11912;BME280;6016;41.928;25.556;2023-05-11T04:46:17;99585.19;;;12.19;70.03
11912;BME280;6016;41.928;25.556;2023-05-11T04:48:43;99626.69;;;12.48;70.01
11912;BME280;6016;41.928;25.556;2023-05-11T04:51:10;99628.63;;;12.46;70.35
11912;BME280;6016;41.928;25.556;2023-05-11T04:53:37;99626.44;;;12.51;70.01
11912;BME280;6016;41.928;25.556;2023-05-11T04:56:06;99624.59;;;12.42;71.63
11912;BME280;6016;41.928;25.556;2023-05-11T04:58:33;99632.53;;;12.52;70.42
11912;BME280;6016;41.928;25.556;2023-05-11T05:01:00;99634.06;;;12.45;71.03
11912;BME280;6016;41.928;25.556;2023-05-11T05:03:26;99607.06;;;12.41;72.41
11912;BME280;6016;41.928;25.556;2023-05-11T05:05:53;99632.00;;;12.58;70.10
11912;BME280;6016;41.928;25.556;2023-05-11T05:08:20;99636.03;;;12.52;71.45
11912;BME280;6016;41.928;25.556;2023-05-11T05:10:47;99468.94;;;11.59;71.15
11912;BME280;6016;41.928;25.556;2023-05-11T05:13:15;99629.47;;;12.66;70.37
11912;BME280;6016;41.928;25.556;2023-05-11T05:15:42;99634.75;;;12.66;70.49
11912;BME280;6016;41.928;25.556;2023-05-11T05:18:09;99629.06;;;12.61;70.39
11912;BME280;6016;41.928;25.556;2023-05-11T05:20:35;99629.75;;;12.73;71.22
11912;BME280;6016;41.928;25.556;2023-05-11T05:23:02;99630.31;;;12.77;70.32
11912;BME280;6016;41.928;25.556;2023-05-11T05:25:30;99586.03;;;12.49;71.52
11912;BME280;6016;41.928;25.556;2023-05-11T05:27:57;99555.81;;;12.32;70.65
11912;BME280;6016;41.928;25.556;2023-05-11T05:30:25;99643.53;;;12.87;70.01
11912;BME280;6016;41.928;25.556;2023-05-11T05:32:52;99599.78;;;12.63;71.16
11912;BME280;6016;41.928;25.556;2023-05-11T05:35:19;99607.19;;;12.69;71.12
11912;BME280;6016;41.928;25.556;2023-05-11T05:37:46;99638.38;;;12.85;70.84
11912;BME280;6016;41.928;25.556;2023-05-11T05:40:13;99658.44;;;12.88;70.77
11912;BME280;6016;41.928;25.556;2023-05-11T05:42:40;99627.34;;;13.00;71.63
11912;BME280;6016;41.928;25.556;2023-05-11T05:45:07;99557.06;;;12.58;71.61
11912;BME280;6016;41.928;25.556;2023-05-11T05:47:36;99641.25;;;13.12;71.50
11912;BME280;6016;41.928;25.556;2023-05-11T05:50:04;99604.66;;;12.87;72.20
11912;BME280;6016;41.928;25.556;2023-05-11T05:52:31;99648.91;;;13.25;72.05
11912;BME280;6016;41.928;25.556;2023-05-11T05:54:58;99568.88;;;12.73;71.17
11912;BME280;6016;41.928;25.556;2023-05-11T05:57:25;99583.28;;;13.08;71.61
11912;BME280;6016;41.928;25.556;2023-05-11T05:59:54;99541.63;;;13.01;71.60
11912;BME280;6016;41.928;25.556;2023-05-11T06:02:21;99657.81;;;13.81;70.03
11912;BME280;6016;41.928;25.556;2023-05-11T06:04:49;99642.28;;;13.86;68.97
11912;BME280;6016;41.928;25.556;2023-05-11T06:07:16;99559.16;;;13.12;69.19
11912;BME280;6016;41.928;25.556;2023-05-11T06:09:43;99608.63;;;13.69;67.93
11912;BME280;6016;41.928;25.556;2023-05-11T06:12:10;99653.06;;;13.85;68.10
11912;BME280;6016;41.928;25.556;2023-05-11T06:14:37;99651.41;;;13.74;67.85
11912;BME280;6016;41.928;25.556;2023-05-11T06:17:04;99467.28;;;12.84;68.24
11912;BME280;6016;41.928;25.556;2023-05-11T06:19:30;99647.19;;;14.09;68.94
11912;BME280;6016;41.928;25.556;2023-05-11T06:21:59;99659.56;;;14.18;68.22
11912;BME280;6016;41.928;25.556;2023-05-11T06:24:25;99661.59;;;14.25;67.58
11912;BME280;6016;41.928;25.556;2023-05-11T06:26:52;99654.31;;;14.27;68.25
11912;BME280;6016;41.928;25.556;2023-05-11T06:29:19;99630.75;;;14.24;67.87
11912;BME280;6016;41.928;25.556;2023-05-11T06:31:46;99591.16;;;14.12;65.77
11912;BME280;6016;41.928;25.556;2023-05-11T06:34:17;99659.97;;;14.60;64.32
11912;BME280;6016;41.928;25.556;2023-05-11T06:36:44;99613.47;;;14.19;64.61
11912;BME280;6016;41.928;25.556;2023-05-11T06:39:13;99666.34;;;14.67;65.29
11912;BME280;6016;41.928;25.556;2023-05-11T06:41:39;99664.66;;;14.66;65.58
11912;BME280;6016;41.928;25.556;2023-05-11T06:44:06;99589.38;;;14.13;64.11
11912;BME280;6016;41.928;25.556;2023-05-11T06:46:33;99564.81;;;14.11;64.61
11912;BME280;6016;41.928;25.556;2023-05-11T06:49:00;99662.88;;;14.85;63.07
11912;BME280;6016;41.928;25.556;2023-05-11T06:51:27;99547.69;;;14.23;63.64
11912;BME280;6016;41.928;25.556;2023-05-11T06:53:54;99648.13;;;14.90;64.00
11912;BME280;6016;41.928;25.556;2023-05-11T06:56:22;99612.09;;;14.70;64.39
11912;BME280;6016;41.928;25.556;2023-05-11T06:58:49;99490.22;;;13.96;63.84
11912;BME280;6016;41.928;25.556;2023-05-11T07:01:15;99577.13;;;14.56;63.64
11912;BME280;6016;41.928;25.556;2023-05-11T07:03:42;99581.78;;;14.72;63.58
11912;BME280;6016;41.928;25.556;2023-05-11T07:06:09;99648.22;;;15.25;64.50
11912;BME280;6016;41.928;25.556;2023-05-11T07:08:36;99587.97;;;14.81;63.44
11912;BME280;6016;41.928;25.556;2023-05-11T07:11:03;99648.66;;;15.21;62.81
11912;BME280;6016;41.928;25.556;2023-05-11T07:13:31;99649.53;;;15.21;62.86
11912;BME280;6016;41.928;25.556;2023-05-11T07:15:58;99647.94;;;15.10;60.89
11912;BME280;6016;41.928;25.556;2023-05-11T07:18:25;99608.63;;;14.69;61.57
11912;BME280;6016;41.928;25.556;2023-05-11T07:20:51;99645.94;;;14.86;62.26
11912;BME280;6016;41.928;25.556;2023-05-11T07:23:18;99550.25;;;13.97;62.51
11912;BME280;6016;41.928;25.556;2023-05-11T07:25:45;99658.22;;;15.05;62.61
11912;BME280;6016;41.928;25.556;2023-05-11T07:28:12;99673.22;;;15.14;62.75
11912;BME280;6016;41.928;25.556;2023-05-11T07:30:40;99622.00;;;15.04;62.82
11912;BME280;6016;41.928;25.556;2023-05-11T07:33:07;99629.50;;;15.09;62.77
11912;BME280;6016;41.928;25.556;2023-05-11T07:35:34;99584.38;;;14.90;62.80
11912;BME280;6016;41.928;25.556;2023-05-11T07:38:01;99633.84;;;15.36;62.63
11912;BME280;6016;41.928;25.556;2023-05-11T07:40:28;99649.22;;;15.59;62.29
11912;BME280;6016;41.928;25.556;2023-05-11T07:42:55;99643.09;;;15.58;59.91
11912;BME280;6016;41.928;25.556;2023-05-11T07:45:22;99646.13;;;15.72;59.91
11912;BME280;6016;41.928;25.556;2023-05-11T07:47:50;99637.63;;;15.95;60.09
11912;BME280;6016;41.928;25.556;2023-05-11T07:50:17;99639.97;;;16.06;59.21
11912;BME280;6016;41.928;25.556;2023-05-11T07:52:43;99637.31;;;16.06;60.04
11912;BME280;6016;41.928;25.556;2023-05-11T07:55:10;99636.81;;;16.02;59.20
11912;BME280;6016;41.928;25.556;2023-05-11T07:57:37;99587.59;;;15.64;59.01
11912;BME280;6016;41.928;25.556;2023-05-11T08:00:05;99574.72;;;15.42;57.96
11912;BME280;6016;41.928;25.556;2023-05-11T08:02:33;99421.19;;;14.58;56.53
11912;BME280;6016;41.928;25.556;2023-05-11T08:05:02;99592.81;;;15.82;56.85
11912;BME280;6016;41.928;25.556;2023-05-11T08:07:29;99641.69;;;16.32;57.34
11912;BME280;6016;41.928;25.556;2023-05-11T08:09:55;99568.03;;;15.81;58.10
11912;BME280;6016;41.928;25.556;2023-05-11T08:12:22;99563.34;;;15.75;58.24
11912;BME280;6016;41.928;25.556;2023-05-11T08:14:49;99636.31;;;16.15;58.57
11912;BME280;6016;41.928;25.556;2023-05-11T08:17:16;99628.00;;;16.10;58.37
11912;BME280;6016;41.928;25.556;2023-05-11T08:19:42;99626.31;;;15.93;56.26
11912;BME280;6016;41.928;25.556;2023-05-11T08:22:11;99622.34;;;16.13;58.11
11912;BME280;6016;41.928;25.556;2023-05-11T08:24:37;99617.22;;;16.28;58.27
11912;BME280;6016;41.928;25.556;2023-05-11T08:27:04;99618.91;;;16.46;56.51
11912;BME280;6016;41.928;25.556;2023-05-11T08:29:31;99466.22;;;15.54;56.87
11912;BME280;6016;41.928;25.556;2023-05-11T08:31:58;99594.25;;;16.36;57.60
11912;BME280;6016;41.928;25.556;2023-05-11T08:34:25;99534.19;;;16.08;55.77
11912;BME280;6016;41.928;25.556;2023-05-11T08:36:53;99542.69;;;16.20;53.29
11912;BME280;6016;41.928;25.556;2023-05-11T08:39:21;99610.94;;;16.87;54.67
11912;BME280;6016;41.928;25.556;2023-05-11T08:41:48;99610.75;;;17.06;51.00
11912;BME280;6016;41.928;25.556;2023-05-11T08:44:16;99604.41;;;16.98;52.17
11912;BME280;6016;41.928;25.556;2023-05-11T08:46:44;99264.34;;;15.03;54.57
11912;BME280;6016;41.928;25.556;2023-05-11T08:49:11;99574.59;;;17.11;52.80
11912;BME280;6016;41.928;25.556;2023-05-11T08:51:39;99590.56;;;17.28;53.48
11912;BME280;6016;41.928;25.556;2023-05-11T08:54:05;99602.66;;;17.47;52.13
11912;BME280;6016;41.928;25.556;2023-05-11T08:56:35;99597.25;;;17.64;52.86
11912;BME280;6016;41.928;25.556;2023-05-11T08:59:03;99597.03;;;17.74;53.08
11912;BME280;6016;41.928;25.556;2023-05-11T09:01:31;99598.66;;;17.83;51.72
11912;BME280;6016;41.928;25.556;2023-05-11T09:04:00;99590.63;;;17.91;50.69
11912;BME280;6016;41.928;25.556;2023-05-11T09:06:28;99590.50;;;17.84;49.96
11912;BME280;6016;41.928;25.556;2023-05-11T09:08:56;99587.06;;;17.67;51.08
11912;BME280;6016;41.928;25.556;2023-05-11T09:11:23;99584.28;;;17.52;51.87
11912;BME280;6016;41.928;25.556;2023-05-11T09:13:52;99484.16;;;17.01;52.48
11912;BME280;6016;41.928;25.556;2023-05-11T09:16:19;99553.94;;;17.85;53.03
11912;BME280;6016;41.928;25.556;2023-05-11T09:18:46;99575.25;;;17.93;52.19
11912;BME280;6016;41.928;25.556;2023-05-11T09:21:13;99398.59;;;16.80;53.03
11912;BME280;6016;41.928;25.556;2023-05-11T09:23:40;99475.28;;;17.49;50.82
11912;BME280;6016;41.928;25.556;2023-05-11T09:26:13;99586.03;;;18.55;49.99
11912;BME280;6016;41.928;25.556;2023-05-11T09:28:47;99522.91;;;18.54;47.58
11912;BME280;6016;41.928;25.556;2023-05-11T09:31:37;99567.91;;;19.04;48.75
11912;BME280;6016;41.928;25.556;2023-05-11T09:34:12;99557.22;;;19.04;47.96
11912;BME280;6016;41.928;25.556;2023-05-11T09:36:39;99552.97;;;19.24;47.33
11912;BME280;6016;41.928;25.556;2023-05-11T09:39:06;99568.66;;;19.43;46.29
11912;BME280;6016;41.928;25.556;2023-05-11T09:41:33;99553.34;;;19.21;45.82
11912;BME280;6016;41.928;25.556;2023-05-11T09:44:05;99388.06;;;17.96;48.54
11912;BME280;6016;41.928;25.556;2023-05-11T09:46:35;99471.16;;;18.70;49.91
11912;BME280;6016;41.928;25.556;2023-05-11T09:49:03;99512.31;;;19.29;49.00
11912;BME280;6016;41.928;25.556;2023-05-11T09:51:32;99546.69;;;19.84;47.87
11912;BME280;6016;41.928;25.556;2023-05-11T09:54:00;99506.81;;;19.52;45.69
11912;BME280;6016;41.928;25.556;2023-05-11T09:56:48;99542.59;;;19.66;49.50
11912;BME280;6016;41.928;25.556;2023-05-11T09:59:16;99543.66;;;19.35;44.70
11912;BME280;6016;41.928;25.556;2023-05-11T10:02:15;99534.50;;;19.15;46.45
11912;BME280;6016;41.928;25.556;2023-05-11T10:04:43;99536.00;;;19.02;49.18
11912;BME280;6016;41.928;25.556;2023-05-11T10:07:10;99538.72;;;18.79;46.30
11912;BME280;6016;41.928;25.556;2023-05-11T10:09:48;99533.81;;;18.67;46.42
11912;BME280;6016;41.928;25.556;2023-05-11T10:12:16;99491.50;;;18.18;49.79
11912;BME280;6016;41.928;25.556;2023-05-11T10:14:44;99542.16;;;18.49;49.52
11912;BME280;6016;41.928;25.556;2023-05-11T10:17:11;99463.25;;;18.08;48.72
11912;BME280;6016;41.928;25.556;2023-05-11T10:19:39;99533.00;;;18.67;49.87
11912;BME280;6016;41.928;25.556;2023-05-11T10:22:07;99463.00;;;18.18;47.98
11912;BME280;6016;41.928;25.556;2023-05-11T10:24:34;99529.09;;;18.54;48.51
11912;BME280;6016;41.928;25.556;2023-05-11T10:27:02;99511.09;;;18.33;50.02
11912;BME280;6016;41.928;25.556;2023-05-11T10:29:30;99525.78;;;18.52;49.37
11912;BME280;6016;41.928;25.556;2023-05-11T10:31:58;99505.78;;;18.48;49.85
11912;BME280;6016;41.928;25.556;2023-05-11T10:34:26;99522.16;;;18.45;49.01
11912;BME280;6016;41.928;25.556;2023-05-11T10:36:54;99523.63;;;18.33;49.49
11912;BME280;6016;41.928;25.556;2023-05-11T10:39:23;99495.63;;;18.05;47.64
11912;BME280;6016;41.928;25.556;2023-05-11T10:41:58;99437.13;;;17.72;49.38
11912;BME280;6016;41.928;25.556;2023-05-11T10:44:49;99400.91;;;17.54;48.50
11912;BME280;6016;41.928;25.556;2023-05-11T10:47:43;99502.50;;;18.23;51.77
11912;BME280;6016;41.928;25.556;2023-05-11T10:53:15;99490.16;;;18.60;50.31
11912;BME280;6016;41.928;25.556;2023-05-11T10:56:02;98839.53;;;14.45;49.59
11912;BME280;6016;41.928;25.556;2023-05-11T10:58:46;99404.13;;;17.88;49.92
11912;BME280;6016;41.928;25.556;2023-05-11T11:01:36;99409.03;;;17.84;47.65
11912;BME280;6016;41.928;25.556;2023-05-11T11:04:05;99488.69;;;18.19;51.76
11912;BME280;6016;41.928;25.556;2023-05-11T11:06:33;99479.38;;;18.15;51.09
11912;BME280;6016;41.928;25.556;2023-05-11T11:09:03;99499.75;;;18.31;47.62
11912;BME280;6016;41.928;25.556;2023-05-11T11:11:34;99439.50;;;17.90;50.71
11912;BME280;6016;41.928;25.556;2023-05-11T11:14:02;99327.13;;;17.23;49.37
11912;BME280;6016;41.928;25.556;2023-05-11T11:16:31;99484.34;;;18.18;51.53
11912;BME280;6016;41.928;25.556;2023-05-11T11:19:35;99486.22;;;18.33;50.29
11912;BME280;6016;41.928;25.556;2023-05-11T11:22:02;99490.16;;;18.22;50.93
11912;BME280;6016;41.928;25.556;2023-05-11T11:24:42;99428.75;;;17.98;49.28
11912;BME280;6016;41.928;25.556;2023-05-11T11:27:12;99484.13;;;18.43;50.44
11912;BME280;6016;41.928;25.556;2023-05-11T11:29:39;99483.88;;;18.53;50.59
11912;BME280;6016;41.928;25.556;2023-05-11T11:32:25;99480.56;;;18.51;47.93
11912;BME280;6016;41.928;25.556;2023-05-11T11:34:52;99485.16;;;18.57;50.84
11912;BME280;6016;41.928;25.556;2023-05-11T11:37:19;99438.78;;;18.35;51.73
11912;BME280;6016;41.928;25.556;2023-05-11T11:39:52;99475.78;;;18.61;48.95
11912;BME280;6016;41.928;25.556;2023-05-11T11:42:37;99402.03;;;17.98;48.27
11912;BME280;6016;41.928;25.556;2023-05-11T11:45:29;99471.53;;;18.52;47.78
11912;BME280;6016;41.928;25.556;2023-05-11T11:48:10;99422.41;;;18.53;44.73
11912;BME280;6016;41.928;25.556;2023-05-11T11:50:39;99304.53;;;18.26;44.39
11912;BME280;6016;41.928;25.556;2023-05-11T11:53:09;99465.25;;;19.57;44.11
11912;BME280;6016;41.928;25.556;2023-05-11T11:55:50;99452.34;;;19.82;44.51
11912;BME280;6016;41.928;25.556;2023-05-11T12:01:24;99394.63;;;19.94;42.52
11912;BME280;6016;41.928;25.556;2023-05-11T12:04:16;99419.44;;;19.88;43.86
11912;BME280;6016;41.928;25.556;2023-05-11T12:06:54;99435.00;;;19.56;47.78
11912;BME280;6016;41.928;25.556;2023-05-11T12:09:22;99423.03;;;19.15;46.98
11912;BME280;6016;41.928;25.556;2023-05-11T12:11:49;99443.88;;;19.20;45.88
11912;BME280;6016;41.928;25.556;2023-05-11T12:14:17;99369.06;;;18.45;48.09
11912;BME280;6016;41.928;25.556;2023-05-11T12:17:02;99423.16;;;18.77;49.18
11912;BME280;6016;41.928;25.556;2023-05-11T12:19:29;99421.28;;;19.44;46.32
11912;BME280;6016;41.928;25.556;2023-05-11T12:21:56;99284.34;;;18.75;46.34
11912;BME280;6016;41.928;25.556;2023-05-11T12:24:23;99366.44;;;19.11;43.80
11912;BME280;6016;41.928;25.556;2023-05-11T12:26:54;99428.78;;;19.12;47.22
11912;BME280;6016;41.928;25.556;2023-05-11T12:29:21;99382.19;;;19.21;45.02
11912;BME280;6016;41.928;25.556;2023-05-11T12:31:48;99416.66;;;19.53;45.70
11912;BME280;6016;41.928;25.556;2023-05-11T12:34:17;99416.41;;;19.48;47.09
11912;BME280;6016;41.928;25.556;2023-05-11T12:36:45;99364.66;;;19.19;44.61
11912;BME280;6016;41.928;25.556;2023-05-11T12:39:17;99409.63;;;19.52;47.96
11912;BME280;6016;41.928;25.556;2023-05-11T12:41:46;99356.50;;;19.05;43.58
11912;BME280;6016;41.928;25.556;2023-05-11T12:44:14;99302.19;;;18.68;44.67
11912;BME280;6016;41.928;25.556;2023-05-11T12:46:42;99331.88;;;18.95;44.17
11912;BME280;6016;41.928;25.556;2023-05-11T12:49:09;99392.59;;;19.16;45.43
11912;BME280;6016;41.928;25.556;2023-05-11T12:51:45;99373.75;;;19.03;44.31
11912;BME280;6016;41.928;25.556;2023-05-11T12:54:12;99399.47;;;19.04;47.70
11912;BME280;6016;41.928;25.556;2023-05-11T12:56:49;99394.75;;;18.91;47.47
11912;BME280;6016;41.928;25.556;2023-05-11T12:59:30;99300.28;;;18.32;45.37
11912;BME280;6016;41.928;25.556;2023-05-11T13:02:12;99399.63;;;19.02;46.15
11912;BME280;6016;41.928;25.556;2023-05-11T13:04:40;99380.78;;;19.25;45.00
11912;BME280;6016;41.928;25.556;2023-05-11T13:07:10;99378.47;;;19.44;45.49
11912;BME280;6016;41.928;25.556;2023-05-11T13:09:37;99381.69;;;19.54;44.58
11912;BME280;6016;41.928;25.556;2023-05-11T13:12:09;99300.75;;;18.87;44.48
11912;BME280;6016;41.928;25.556;2023-05-11T13:14:36;99377.66;;;19.22;46.22
11912;BME280;6016;41.928;25.556;2023-05-11T13:17:04;99368.81;;;19.21;47.91
11912;BME280;6016;41.928;25.556;2023-05-11T13:19:31;99376.19;;;19.19;45.72
11912;BME280;6016;41.928;25.556;2023-05-11T13:21:58;99347.47;;;18.76;47.54